Time;durP1;ratioP1;P1;durP2;ratioP2;P2;SDS_P1;SDS_P2;PMS_P1;PMS_P2;Temp;Humidity;BMP_temperature;BMP_pressure;BME280_temperature;BME280_humidity;BME280_pressure;Samples;Min_cycle;Max_cycle;Signal;HPM_P1;HPM_P2
2023/06/29 00:01:04;;;;;;;3.60;2.08;;;17.30;52.10;;;;;;5043009;28;20079;-60
2023/06/29 00:03:33;;;;;;;3.05;1.98;;;17.30;52.10;;;;;;5042675;28;20030;-60
2023/06/29 00:06:00;;;;;;;2.55;1.88;;;17.30;52.20;;;;;;5041711;28;20029;-60
2023/06/29 00:08:27;;;;;;;4.57;1.75;;;17.20;52.10;;;;;;5041937;28;20021;-62
2023/06/29 00:10:54;;;;;;;2.00;1.70;;;17.20;52.10;;;;;;5042245;28;20033;-59
2023/06/29 00:13:20;;;;;;;2.83;1.90;;;17.20;52.30;;;;;;5038239;28;20044;-61
2023/06/29 00:15:46;;;;;;;3.78;2.03;;;17.10;52.30;;;;;;5041318;28;20022;-61
2023/06/29 00:18:15;;;;;;;4.20;2.13;;;17.10;52.50;;;;;;5041463;28;20025;-60
2023/06/29 00:20:42;;;;;;;3.30;1.90;;;17.10;52.50;;;;;;5042419;28;20364;-60
2023/06/29 00:23:08;;;;;;;3.08;2.13;;;17.10;52.60;;;;;;5042013;28;20055;-60
2023/06/29 00:25:35;;;;;;;5.40;1.92;;;17.00;52.50;;;;;;5040879;28;20072;-60
2023/06/29 00:28:02;;;;;;;5.13;2.15;;;17.00;52.50;;;;;;5041130;28;20064;-61
2023/06/29 00:30:28;;;;;;;3.40;2.10;;;17.00;52.80;;;;;;5042160;28;20070;-61
2023/06/29 00:32:54;;;;;;;3.92;2.10;;;16.90;53.00;;;;;;5041013;28;20021;-60
2023/06/29 00:35:19;;;;;;;2.80;1.80;;;16.90;53.20;;;;;;5040885;28;20107;-61
2023/06/29 00:37:45;;;;;;;4.38;2.10;;;16.90;53.40;;;;;;5041632;28;20388;-62
2023/06/29 00:40:11;;;;;;;2.40;1.70;;;16.90;53.50;;;;;;4914994;28;20524;-61
2023/06/29 00:42:37;;;;;;;2.67;1.98;;;16.90;53.80;;;;;;5040838;28;20044;-61
2023/06/29 00:45:04;;;;;;;2.95;1.70;;;16.80;53.90;;;;;;5041037;28;20030;-61
2023/06/29 00:47:31;;;;;;;4.35;2.10;;;16.90;54.00;;;;;;5023906;28;20040;-59
2023/06/29 00:49:57;;;;;;;3.60;2.05;;;16.80;54.00;;;;;;5041138;28;20029;-59
2023/06/29 00:52:23;;;;;;;4.05;1.90;;;16.80;54.10;;;;;;5040879;28;20548;-60
2023/06/29 00:54:50;;;;;;;3.10;1.67;;;16.80;54.40;;;;;;5041421;28;20356;-60
2023/06/29 00:57:16;;;;;;;4.95;1.80;;;16.80;54.50;;;;;;5041675;28;20023;-59
2023/06/29 00:59:41;;;;;;;4.10;1.73;;;16.80;54.40;;;;;;5041789;28;20088;-60
2023/06/29 01:02:10;;;;;;;4.00;1.80;;;16.80;54.60;;;;;;5042530;28;20048;-59
2023/06/29 01:04:37;;;;;;;2.40;1.73;;;16.80;54.70;;;;;;5042430;28;20029;-60
2023/06/29 01:07:15;;;;;;;2.72;1.60;;;16.80;54.70;;;;;;5043116;28;20034;-60
2023/06/29 01:09:44;;;;;;;4.93;1.75;;;16.80;55.30;;;;;;5034989;28;20037;-60
2023/06/29 01:12:12;;;;;;;5.28;1.55;;;16.70;54.30;;;;;;5037835;28;20064;-60
2023/06/29 01:14:41;;;;;;;3.92;1.52;;;16.70;54.30;;;;;;5040532;28;20061;-60
2023/06/29 01:17:12;;;;;;;5.13;1.70;;;16.70;54.20;;;;;;5040411;28;20033;-61
2023/06/29 01:19:43;;;;;;;1.92;1.70;;;16.60;54.40;;;;;;5040895;28;20029;-60
2023/06/29 01:22:29;;;;;;;2.92;1.38;;;16.60;54.30;;;;;;5035813;28;20026;-60
2023/06/29 01:24:56;;;;;;;3.33;1.70;;;16.60;54.90;;;;;;5035033;28;20033;-60
2023/06/29 01:27:21;;;;;;;2.30;1.58;;;16.60;54.20;;;;;;5040460;28;20071;-60
2023/06/29 01:29:47;;;;;;;4.85;1.60;;;16.60;54.30;;;;;;5041276;28;20025;-59
2023/06/29 01:32:14;;;;;;;5.72;1.80;;;16.50;54.20;;;;;;5041191;28;20048;-60
2023/06/29 01:34:40;;;;;;;3.50;1.70;;;16.40;54.00;;;;;;5040089;28;20170;-60
2023/06/29 01:37:13;;;;;;;2.60;1.65;;;16.40;54.00;;;;;;5040195;28;20124;-60
2023/06/29 01:40:01;;;;;;;2.38;1.42;;;16.30;54.40;;;;;;5039787;28;20033;-61
2023/06/29 01:42:30;;;;;;;2.60;1.40;;;16.30;54.70;;;;;;5040196;28;20030;-60
2023/06/29 01:44:57;;;;;;;4.57;1.70;;;16.30;54.20;;;;;;5039814;28;20045;-59
2023/06/29 01:47:24;;;;;;;3.17;1.65;;;16.20;54.40;;;;;;5041233;28;20030;-60
2023/06/29 01:49:49;;;;;;;2.20;1.35;;;16.20;54.50;;;;;;5040655;28;20022;-61
2023/06/29 01:52:16;;;;;;;5.28;1.60;;;16.10;54.30;;;;;;5040005;28;20104;-59
2023/06/29 01:54:42;;;;;;;3.40;1.80;;;16.10;54.50;;;;;;5022104;28;20029;-59
2023/06/29 01:57:08;;;;;;;3.22;1.60;;;16.00;54.60;;;;;;5041117;28;20021;-61
2023/06/29 01:59:34;;;;;;;3.78;1.50;;;16.00;54.70;;;;;;5039985;28;20036;-60
2023/06/29 02:01:59;;;;;;;2.75;1.50;;;16.00;54.80;;;;;;5039865;28;20033;-60
2023/06/29 02:04:25;;;;;;;5.35;2.10;;;15.90;54.80;;;;;;5040616;28;20036;-59
2023/06/29 02:06:51;;;;;;;3.20;1.80;;;15.90;54.90;;;;;;5040881;28;20056;-60
2023/06/29 02:09:16;;;;;;;2.72;1.60;;;15.90;55.00;;;;;;5040132;28;20033;-61
2023/06/29 02:11:42;;;;;;;3.35;1.60;;;15.90;55.20;;;;;;5039669;28;20112;-60
2023/06/29 02:14:08;;;;;;;2.83;1.67;;;15.80;55.40;;;;;;5040782;28;20022;-61
2023/06/29 02:16:34;;;;;;;1.83;1.50;;;15.80;55.50;;;;;;5039958;28;20089;-60
2023/06/29 02:18:59;;;;;;;2.40;1.70;;;15.80;55.50;;;;;;5040003;28;20026;-61
2023/06/29 02:21:25;;;;;;;4.78;1.60;;;15.80;55.50;;;;;;5040762;28;20048;-60
2023/06/29 02:23:51;;;;;;;2.25;1.65;;;15.80;55.40;;;;;;5040046;28;20027;-61
2023/06/29 02:26:16;;;;;;;4.90;1.50;;;15.80;55.50;;;;;;5039677;28;20045;-60
2023/06/29 02:28:42;;;;;;;1.83;1.60;;;15.80;55.60;;;;;;5041075;28;20024;-61
2023/06/29 02:31:08;;;;;;;4.95;1.67;;;15.70;55.60;;;;;;5040018;28;20037;-60
2023/06/29 02:33:34;;;;;;;2.40;1.70;;;15.70;55.40;;;;;;5039936;28;20040;-60
2023/06/29 02:35:59;;;;;;;2.80;1.70;;;15.70;55.60;;;;;;5040630;28;20021;-60
2023/06/29 02:38:25;;;;;;;4.63;1.50;;;15.60;55.60;;;;;;5039413;28;20071;-60
2023/06/29 02:40:51;;;;;;;2.22;1.52;;;15.60;55.80;;;;;;5039986;28;20025;-61
2023/06/29 02:43:16;;;;;;;4.45;1.65;;;15.60;56.20;;;;;;5040510;28;20035;-60
2023/06/29 02:45:42;;;;;;;2.83;1.70;;;15.60;56.50;;;;;;5040072;28;20044;-59
2023/06/29 02:48:08;;;;;;;5.22;1.60;;;15.60;56.60;;;;;;5039543;28;20029;-61
2023/06/29 02:50:33;;;;;;;2.75;1.90;;;15.60;56.60;;;;;;5021551;28;20049;-61
2023/06/29 02:52:59;;;;;;;2.15;1.70;;;15.60;56.80;;;;;;5040652;28;20366;-61
2023/06/29 02:55:25;;;;;;;2.70;1.50;;;15.50;56.70;;;;;;5039642;28;20022;-61
2023/06/29 02:57:51;;;;;;;4.32;1.50;;;15.60;56.70;;;;;;5037231;28;20029;-61
2023/06/29 03:00:17;;;;;;;2.90;1.58;;;15.60;56.90;;;;;;5044051;28;20029;-60
2023/06/29 03:02:42;;;;;;;2.05;1.60;;;15.50;57.00;;;;;;5042913;28;20033;-60
2023/06/29 03:05:08;;;;;;;4.45;2.00;;;15.60;57.00;;;;;;5042980;28;20037;-60
2023/06/29 03:07:34;;;;;;;2.15;1.70;;;15.60;57.00;;;;;;5025404;28;20040;-60
2023/06/29 03:10:00;;;;;;;1.70;1.55;;;15.60;56.80;;;;;;5043612;28;20032;-61
2023/06/29 03:12:26;;;;;;;2.45;1.42;;;15.50;56.80;;;;;;5042794;28;20106;-60
2023/06/29 03:14:51;;;;;;;3.42;2.00;;;15.50;56.80;;;;;;5042985;28;20027;-60
2023/06/29 03:17:17;;;;;;;3.58;2.17;;;15.50;56.80;;;;;;5039489;28;20464;-61
2023/06/29 03:19:44;;;;;;;2.72;1.85;;;15.50;56.90;;;;;;5042402;28;20029;-59
2023/06/29 03:22:10;;;;;;;3.25;1.98;;;15.50;57.00;;;;;;5042551;28;20025;-61
2023/06/29 03:24:36;;;;;;;2.63;1.90;;;15.50;57.20;;;;;;5043555;28;20053;-59
2023/06/29 03:27:01;;;;;;;2.72;1.77;;;15.50;57.30;;;;;;5042354;28;20052;-61
2023/06/29 03:29:27;;;;;;;3.15;2.13;;;15.50;58.00;;;;;;5042830;28;20046;-61
2023/06/29 03:31:53;;;;;;;4.18;2.30;;;15.50;57.40;;;;;;5042604;28;20037;-60
2023/06/29 03:34:19;;;;;;;3.20;1.75;;;15.40;57.50;;;;;;5043411;28;20026;-60
2023/06/29 03:36:44;;;;;;;1.80;1.70;;;15.50;57.40;;;;;;5042202;28;20040;-62
2023/06/29 03:39:10;;;;;;;2.70;1.90;;;15.40;57.40;;;;;;5041924;28;20029;-60
2023/06/29 03:41:36;;;;;;;3.25;1.77;;;15.40;57.50;;;;;;5043389;28;20049;-61
2023/06/29 03:44:02;;;;;;;3.55;2.15;;;15.40;57.60;;;;;;5041839;28;20020;-61
2023/06/29 03:46:27;;;;;;;4.72;1.98;;;15.40;57.50;;;;;;5041993;28;20021;-60
2023/06/29 03:48:53;;;;;;;3.72;2.45;;;15.40;57.50;;;;;;5043184;28;20025;-60
2023/06/29 03:51:19;;;;;;;4.65;2.22;;;15.40;57.60;;;;;;5042368;28;20124;-61
2023/06/29 03:53:44;;;;;;;4.13;2.10;;;15.40;57.60;;;;;;5041662;28;20029;-61
2023/06/29 03:56:10;;;;;;;3.70;2.13;;;15.40;57.50;;;;;;5041369;28;20033;-61
2023/06/29 03:58:36;;;;;;;3.72;1.88;;;15.40;57.60;;;;;;5043438;28;20022;-61
2023/06/29 04:01:01;;;;;;;3.00;1.80;;;15.40;57.80;;;;;;5041658;28;20076;-61
2023/06/29 04:03:27;;;;;;;3.80;1.80;;;15.40;58.00;;;;;;5043073;28;20060;-61
2023/06/29 04:05:53;;;;;;;3.20;1.83;;;15.40;58.00;;;;;;5042701;28;20064;-60
2023/06/29 04:08:18;;;;;;;2.10;1.85;;;15.40;58.10;;;;;;5041636;28;20026;-61
2023/06/29 04:10:44;;;;;;;3.42;1.83;;;15.50;58.30;;;;;;5042642;28;20026;-60
2023/06/29 04:13:10;;;;;;;2.55;1.70;;;15.50;58.30;;;;;;5037322;28;20022;-60
2023/06/29 04:15:35;;;;;;;3.45;2.03;;;15.60;58.30;;;;;;5043217;28;20029;-60
2023/06/29 04:18:01;;;;;;;3.50;2.15;;;15.60;58.30;;;;;;5041172;28;20400;-59
2023/06/29 04:20:28;;;;;;;3.15;2.08;;;15.70;58.30;;;;;;5041463;28;20052;-60
2023/06/29 04:22:55;;;;;;;4.22;1.90;;;15.70;58.30;;;;;;5042096;28;20036;-61
2023/06/29 04:25:20;;;;;;;5.20;1.95;;;15.80;58.30;;;;;;5041657;28;20080;-61
2023/06/29 04:27:46;;;;;;;2.67;2.15;;;15.80;58.30;;;;;;5041057;28;20029;-61
2023/06/29 04:30:12;;;;;;;4.72;1.50;;;15.90;58.30;;;;;;5041866;28;20153;-62
2023/06/29 04:32:39;;;;;;;4.45;1.55;;;16.00;58.20;;;;;;5042052;28;20354;-61
2023/06/29 04:35:05;;;;;;;4.30;2.63;;;16.10;58.10;;;;;;5041203;28;20396;-60
2023/06/29 04:37:40;;;;;;;2.38;1.88;;;16.10;58.00;;;;;;5040820;28;20018;-60
2023/06/29 04:40:10;;;;;;;4.35;2.38;;;16.20;57.90;;;;;;5040727;28;20104;-61
2023/06/29 04:42:45;;;;;;;4.53;1.80;;;16.20;57.80;;;;;;5041390;28;20049;-63
2023/06/29 04:45:19;;;;;;;2.63;1.63;;;16.30;57.80;;;;;;5024212;28;20021;-60
2023/06/29 04:47:49;;;;;;;3.13;1.75;;;16.40;58.00;;;;;;5038868;28;20047;-61
2023/06/29 04:50:15;;;;;;;2.58;1.63;;;16.40;57.50;;;;;;5038075;28;20052;-61
2023/06/29 04:52:42;;;;;;;4.32;2.15;;;16.50;57.50;;;;;;5040778;28;20049;-61
2023/06/29 04:55:08;;;;;;;3.28;1.90;;;16.50;57.50;;;;;;5041210;28;20025;-61
2023/06/29 04:57:35;;;;;;;3.83;2.00;;;16.60;57.40;;;;;;5042211;28;20088;-60
2023/06/29 05:00:00;;;;;;;3.90;1.92;;;16.70;57.40;;;;;;5041916;28;20034;-61
2023/06/29 05:02:26;;;;;;;6.32;2.00;;;16.70;57.30;;;;;;5041671;28;20796;-61
2023/06/29 05:04:52;;;;;;;3.95;1.83;;;16.80;57.40;;;;;;5040748;28;20029;-61
2023/06/29 05:07:18;;;;;;;3.83;1.98;;;16.80;57.30;;;;;;5041961;28;20033;-61
2023/06/29 05:09:43;;;;;;;2.50;2.00;;;16.90;57.20;;;;;;5040642;28;20088;-60
2023/06/29 05:12:09;;;;;;;5.60;1.90;;;17.00;57.20;;;;;;5018637;28;20041;-60
2023/06/29 05:14:35;;;;;;;3.42;2.28;;;17.10;57.30;;;;;;5041564;28;20032;-60
2023/06/29 05:17:01;;;;;;;11.20;2.00;;;17.20;57.40;;;;;;5040395;28;20774;-59
2023/06/29 05:19:26;;;;;;;6.15;1.98;;;17.30;57.20;;;;;;5022094;28;20033;-60
2023/06/29 05:21:52;;;;;;;3.90;2.00;;;17.50;56.90;;;;;;5040421;28;20041;-60
2023/06/29 05:24:18;;;;;;;5.15;1.90;;;17.60;56.90;;;;;;5041153;28;20538;-61
2023/06/29 05:26:44;;;;;;;6.18;1.95;;;17.70;56.70;;;;;;5040475;28;20025;-61
2023/06/29 05:29:09;;;;;;;5.32;2.17;;;17.80;56.50;;;;;;5039670;28;20061;-60
2023/06/29 05:31:35;;;;;;;4.82;2.35;;;17.90;56.50;;;;;;5037794;28;20093;-61
2023/06/29 05:34:01;;;;;;;8.90;2.40;;;18.10;56.40;;;;;;5040422;28;20053;-61
2023/06/29 05:36:26;;;;;;;5.25;2.10;;;18.20;57.10;;;;;;5040020;28;20022;-61
2023/06/29 05:38:52;;;;;;;7.53;2.30;;;18.40;56.30;;;;;;5040836;28;20018;-62
2023/06/29 05:41:18;;;;;;;8.05;2.50;;;18.50;56.20;;;;;;5040376;28;20040;-60
2023/06/29 05:43:43;;;;;;;8.00;2.25;;;18.70;56.10;;;;;;5040525;28;20033;-60
2023/06/29 05:46:10;;;;;;;8.85;2.13;;;18.80;55.80;;;;;;5039989;28;20030;-60
2023/06/29 05:48:35;;;;;;;6.95;2.50;;;18.90;55.70;;;;;;5040920;28;20436;-60
2023/06/29 05:51:01;;;;;;;8.07;2.75;;;19.10;55.50;;;;;;5039946;28;20034;-61
2023/06/29 05:53:27;;;;;;;9.40;2.33;;;19.30;55.40;;;;;;5039791;28;20024;-60
2023/06/29 05:55:52;;;;;;;9.80;2.42;;;19.40;55.10;;;;;;5040835;28;20026;-61
2023/06/29 05:58:18;;;;;;;7.22;1.90;;;19.50;55.00;;;;;;5039669;28;20108;-61
2023/06/29 06:00:44;;;;;;;13.18;2.60;;;19.70;54.80;;;;;;5039747;28;20392;-61
2023/06/29 06:03:10;;;;;;;9.55;2.15;;;19.80;54.60;;;;;;5040536;28;20029;-61
2023/06/29 06:05:36;;;;;;;5.35;2.30;;;20.00;54.50;;;;;;5040460;28;20032;-61
2023/06/29 06:08:02;;;;;;;4.07;1.92;;;20.10;54.20;;;;;;5035714;28;20034;-61
2023/06/29 06:10:27;;;;;;;6.57;2.33;;;20.30;53.90;;;;;;5039851;28;20075;-61
2023/06/29 06:12:53;;;;;;;6.18;2.40;;;20.40;53.60;;;;;;5023006;28;20029;-61
2023/06/29 06:15:18;;;;;;;7.43;2.58;;;20.60;53.60;;;;;;5039562;28;20037;-61
2023/06/29 06:17:44;;;;;;;4.68;2.75;;;20.70;53.40;;;;;;5038512;28;20025;-62
2023/06/29 06:20:10;;;;;;;6.57;2.33;;;20.80;53.00;;;;;;5033192;28;20021;-61
2023/06/29 06:22:36;;;;;;;4.13;2.38;;;20.90;52.80;;;;;;5039714;28;20053;-61
2023/06/29 06:25:02;;;;;;;7.80;2.58;;;21.00;52.70;;;;;;5039296;28;20046;-61
2023/06/29 06:27:27;;;;;;;4.20;2.33;;;21.20;52.40;;;;;;5040960;28;20044;-61
2023/06/29 06:29:53;;;;;;;3.90;2.42;;;21.30;52.50;;;;;;5040885;28;20053;-60
2023/06/29 06:32:20;;;;;;;5.15;2.38;;;21.40;52.20;;;;;;5042095;28;20033;-60
2023/06/29 06:34:45;;;;;;;5.53;2.22;;;21.50;51.90;;;;;;5043213;28;20022;-61
2023/06/29 06:37:11;;;;;;;8.77;2.70;;;21.70;51.70;;;;;;5040976;28;20025;-60
2023/06/29 06:39:37;;;;;;;6.07;2.40;;;21.80;51.50;;;;;;5042583;28;20026;-60
2023/06/29 06:42:03;;;;;;;6.28;1.95;;;21.90;51.40;;;;;;5043688;28;20084;-60
2023/06/29 06:44:28;;;;;;;3.00;2.13;;;22.00;51.10;;;;;;5044205;28;20013;-60
2023/06/29 06:46:54;;;;;;;4.50;2.58;;;22.10;50.90;;;;;;5038465;28;20022;-62
2023/06/29 06:49:20;;;;;;;4.97;2.28;;;22.30;50.70;;;;;;5042939;28;20024;-61
2023/06/29 06:51:45;;;;;;;9.95;2.60;;;22.40;50.50;;;;;;5043060;28;20037;-61
2023/06/29 06:54:11;;;;;;;11.23;2.80;;;22.50;50.50;;;;;;5044071;28;20029;-62
2023/06/29 06:56:37;;;;;;;5.13;2.65;;;22.70;50.50;;;;;;5025035;28;20029;-62
2023/06/29 06:59:04;;;;;;;8.75;2.80;;;22.80;50.00;;;;;;5042723;28;20044;-60
2023/06/29 07:01:29;;;;;;;6.03;2.55;;;22.90;49.50;;;;;;5043742;28;20079;-61
2023/06/29 07:03:55;;;;;;;4.30;2.95;;;23.00;49.30;;;;;;5042745;28;20026;-61
2023/06/29 07:06:21;;;;;;;4.72;2.92;;;23.10;49.00;;;;;;5038712;28;20025;-61
2023/06/29 07:08:46;;;;;;;6.63;2.75;;;23.20;49.00;;;;;;5043783;28;20053;-61
2023/06/29 07:11:12;;;;;;;4.13;2.60;;;23.30;49.20;;;;;;5042688;28;20034;-61
2023/06/29 07:13:37;;;;;;;5.05;2.65;;;23.40;49.10;;;;;;5042710;28;20044;-61
2023/06/29 07:16:05;;;;;;;4.45;2.55;;;23.50;49.20;;;;;;5043699;28;20040;-61
2023/06/29 07:18:33;;;;;;;8.88;2.45;;;23.60;49.10;;;;;;5044755;28;20029;-61
2023/06/29 07:20:59;;;;;;;5.65;2.72;;;23.70;49.20;;;;;;5042083;28;20036;-61
2023/06/29 07:23:25;;;;;;;5.30;2.50;;;23.80;49.00;;;;;;5042453;28;20025;-60
2023/06/29 07:25:51;;;;;;;3.45;2.35;;;24.00;48.80;;;;;;5038659;28;20056;-59
2023/06/29 07:28:16;;;;;;;8.82;2.40;;;24.20;48.40;;;;;;5042750;28;20039;-60
2023/06/29 07:30:42;;;;;;;7.18;3.00;;;24.30;48.00;;;;;;5041965;28;20041;-60
2023/06/29 07:33:08;;;;;;;12.23;3.50;;;24.40;47.70;;;;;;5037919;28;20464;-61
2023/06/29 07:35:34;;;;;;;8.13;2.58;;;24.50;47.70;;;;;;5043320;28;20021;-61
2023/06/29 07:37:59;;;;;;;7.88;2.80;;;24.70;47.60;;;;;;5041274;28;20041;-62
2023/06/29 07:40:25;;;;;;;12.95;2.85;;;24.80;47.00;;;;;;5042121;28;20077;-61
2023/06/29 07:42:50;;;;;;;5.53;2.60;;;24.90;46.70;;;;;;5042567;28;20056;-61
2023/06/29 07:45:16;;;;;;;4.70;2.42;;;25.00;46.90;;;;;;5037758;28;20034;-61
2023/06/29 07:47:42;;;;;;;5.93;2.38;;;25.10;46.90;;;;;;5042402;28;20040;-61
2023/06/29 07:50:08;;;;;;;6.93;2.30;;;25.20;46.90;;;;;;5025089;28;20090;-61
2023/06/29 07:52:34;;;;;;;6.32;3.00;;;25.30;47.20;;;;;;5042047;28;20093;-61
2023/06/29 07:54:59;;;;;;;5.32;2.63;;;25.40;46.80;;;;;;5037523;28;20033;-61
2023/06/29 07:57:25;;;;;;;5.15;2.50;;;25.50;46.20;;;;;;5041758;28;20051;-61
2023/06/29 07:59:51;;;;;;;6.53;2.97;;;25.60;46.40;;;;;;5026004;28;20025;-61
2023/06/29 08:02:16;;;;;;;5.70;2.40;;;25.70;46.40;;;;;;5042443;28;20072;-61
2023/06/29 08:04:42;;;;;;;10.25;2.92;;;25.80;46.30;;;;;;5043396;28;20037;-61
2023/06/29 08:07:08;;;;;;;9.05;2.70;;;25.90;45.30;;;;;;5044811;28;20477;-60
2023/06/29 08:09:33;;;;;;;5.70;2.00;;;26.00;45.20;;;;;;5043378;28;20025;-60
2023/06/29 08:11:59;;;;;;;3.15;1.80;;;26.20;44.80;;;;;;5044149;28;20041;-61
2023/06/29 08:14:25;;;;;;;6.85;1.95;;;26.20;44.80;;;;;;5042217;28;20026;-61
2023/06/29 08:16:50;;;;;;;3.38;1.40;;;26.30;44.70;;;;;;5042320;28;20060;-61
2023/06/29 08:19:16;;;;;;;4.38;1.60;;;26.40;44.60;;;;;;5042390;28;20037;-61
2023/06/29 08:21:41;;;;;;;2.13;1.42;;;26.50;43.10;;;;;;5041574;28;20029;-61
2023/06/29 08:24:08;;;;;;;3.42;1.58;;;26.60;42.80;;;;;;5041049;28;20025;-61
2023/06/29 08:26:34;;;;;;;3.28;1.40;;;26.60;43.20;;;;;;5042127;28;20061;-62
2023/06/29 08:29:00;;;;;;;3.13;1.33;;;26.70;43.40;;;;;;5041189;28;20017;-62
2023/06/29 08:31:26;;;;;;;3.95;1.50;;;26.90;43.30;;;;;;5041235;28;20387;-62
2023/06/29 08:33:52;;;;;;;3.78;1.45;;;27.00;42.40;;;;;;5041992;28;20078;-62
2023/06/29 08:36:17;;;;;;;4.70;2.10;;;27.10;42.60;;;;;;5041055;28;20093;-62
2023/06/29 08:38:48;;;;;;;3.58;1.50;;;27.20;42.40;;;;;;5035839;28;20026;-62
2023/06/29 08:41:15;;;;;;;6.03;1.60;;;27.30;41.40;;;;;;5041262;28;20048;-62
2023/06/29 08:43:41;;;;;;;3.72;1.40;;;27.40;41.00;;;;;;5041635;28;20063;-60
2023/06/29 08:46:08;;;;;;;3.90;1.48;;;27.50;41.50;;;;;;5040610;28;20056;-62
2023/06/29 08:48:34;;;;;;;3.25;1.55;;;27.60;41.20;;;;;;5040868;28;20081;-62
2023/06/29 08:51:10;;;;;;;2.58;1.35;;;27.80;40.70;;;;;;5040364;28;20038;-61
2023/06/29 08:53:39;;;;;;;9.15;2.22;;;27.90;40.60;;;;;;5040422;28;20436;-61
2023/06/29 08:56:05;;;;;;;8.93;1.52;;;28.10;40.60;;;;;;5040964;28;20029;-61
2023/06/29 08:58:31;;;;;;;11.25;1.52;;;28.10;40.10;;;;;;5040631;28;20040;-61
2023/06/29 09:00:57;;;;;;;3.05;1.27;;;28.20;40.10;;;;;;5036360;28;20049;-61
2023/06/29 09:03:25;;;;;;;3.03;1.30;;;28.20;39.20;;;;;;5040846;28;20034;-61
2023/06/29 09:05:50;;;;;;;2.55;1.70;;;28.20;40.00;;;;;;5041646;28;20029;-63
2023/06/29 09:08:17;;;;;;;6.88;1.52;;;28.20;39.40;;;;;;5040377;28;20037;-63
2023/06/29 09:10:46;;;;;;;2.97;1.50;;;28.30;39.50;;;;;;5040090;28;20396;-61
2023/06/29 09:13:13;;;;;;;1.90;1.20;;;28.30;39.20;;;;;;5040283;28;20089;-61
2023/06/29 09:15:39;;;;;;;3.30;1.30;;;28.30;39.50;;;;;;5041191;28;20030;-61
2023/06/29 09:18:06;;;;;;;1.85;1.08;;;28.30;39.20;;;;;;5040516;28;20029;-61
2023/06/29 09:20:35;;;;;;;3.35;1.73;;;28.30;38.20;;;;;;5035607;28;20025;-61
2023/06/29 09:23:05;;;;;;;5.85;1.33;;;28.30;37.60;;;;;;5039778;28;20039;-62
2023/06/29 09:25:33;;;;;;;4.13;1.27;;;28.40;37.90;;;;;;5041174;28;20076;-61
2023/06/29 09:28:03;;;;;;;5.80;1.25;;;28.50;37.30;;;;;;5040818;28;20033;-62
2023/06/29 09:30:34;;;;;;;3.08;1.10;;;28.50;37.70;;;;;;5040065;28;20060;-61
2023/06/29 09:33:05;;;;;;;4.00;1.55;;;28.60;37.50;;;;;;5040348;28;20025;-62
2023/06/29 09:35:31;;;;;;;3.17;1.23;;;28.70;37.80;;;;;;5038248;28;20021;-61
2023/06/29 09:37:56;;;;;;;2.13;1.25;;;28.80;38.10;;;;;;5040421;28;20085;-62
2023/06/29 09:40:22;;;;;;;3.83;1.33;;;28.90;37.90;;;;;;5040279;28;20105;-62
2023/06/29 09:42:48;;;;;;;3.13;1.40;;;29.00;37.20;;;;;;5039748;28;20025;-61
2023/06/29 09:45:15;;;;;;;5.30;1.23;;;29.10;36.60;;;;;;5040104;28;20034;-61
2023/06/29 09:47:48;;;;;;;2.22;1.20;;;29.20;35.60;;;;;;5040626;28;20021;-61
2023/06/29 09:50:22;;;;;;;2.95;1.20;;;29.20;34.10;;;;;;5036919;28;20032;-62
2023/06/29 09:52:51;;;;;;;4.75;1.15;;;29.30;36.00;;;;;;5040345;28;20029;-61
2023/06/29 09:55:17;;;;;;;3.45;1.05;;;29.30;35.80;;;;;;5039899;28;20055;-60
2023/06/29 09:57:45;;;;;;;2.78;1.25;;;29.40;35.20;;;;;;5035191;28;20049;-61
2023/06/29 10:00:13;;;;;;;5.20;2.03;;;29.50;34.80;;;;;;5039422;28;20033;-60
2023/06/29 10:02:41;;;;;;;1.60;1.10;;;29.40;34.00;;;;;;5040623;28;20033;-61
2023/06/29 10:05:09;;;;;;;5.75;1.35;;;29.30;34.30;;;;;;5039577;28;20030;-62
2023/06/29 10:07:36;;;;;;;4.15;1.15;;;29.20;34.00;;;;;;5043192;28;20024;-61
2023/06/29 10:10:04;;;;;;;1.77;0.90;;;29.20;34.20;;;;;;5043577;28;20060;-61
2023/06/29 10:12:31;;;;;;;2.97;1.15;;;29.10;34.50;;;;;;5044953;28;20048;-61
2023/06/29 10:15:08;;;;;;;1.50;1.23;;;29.00;34.40;;;;;;5043496;28;20036;-62
2023/06/29 10:18:02;;;;;;;4.95;1.23;;;28.90;34.00;;;;;;5039615;28;20613;-61
2023/06/29 10:20:31;;;;;;;4.80;1.20;;;28.80;33.90;;;;;;5044435;28;20025;-61
2023/06/29 10:23:02;;;;;;;2.22;1.15;;;28.70;34.50;;;;;;5043744;28;20128;-62
2023/06/29 10:25:32;;;;;;;2.58;0.98;;;28.70;35.00;;;;;;5043255;28;20101;-62
2023/06/29 10:27:58;;;;;;;8.52;1.45;;;28.80;35.30;;;;;;5044324;28;20037;-61
2023/06/29 10:30:25;;;;;;;1.90;1.00;;;28.80;34.80;;;;;;5043228;28;20068;-61
2023/06/29 10:32:52;;;;;;;1.83;1.00;;;28.80;35.30;;;;;;5043049;28;20036;-62
2023/06/29 10:35:18;;;;;;;4.05;1.50;;;28.80;36.20;;;;;;5040085;28;20025;-61
2023/06/29 10:37:45;;;;;;;1.13;1.00;;;28.80;35.30;;;;;;5042991;28;20598;-61
2023/06/29 10:40:11;;;;;;;5.10;1.10;;;28.90;35.30;;;;;;4991025;28;20060;-61
2023/06/29 10:42:39;;;;;;;2.53;1.30;;;28.90;35.40;;;;;;5042913;28;20029;-62
2023/06/29 10:45:20;;;;;;;2.20;1.27;;;29.00;35.90;;;;;;5044183;28;20064;-62
2023/06/29 10:48:16;;;;;;;2.97;1.27;;;29.10;35.40;;;;;;5042672;28;20017;-61
2023/06/29 10:50:47;;;;;;;3.20;1.15;;;29.20;34.40;;;;;;5038337;28;20128;-62
2023/06/29 10:53:15;;;;;;;2.58;1.00;;;29.40;36.70;;;;;;5042806;28;20026;-62
2023/06/29 10:55:42;;;;;;;1.75;0.85;;;29.60;36.00;;;;;;5038859;28;20044;-62
2023/06/29 10:58:16;;;;;;;1.90;1.10;;;29.70;35.50;;;;;;5024838;28;20044;-63
2023/06/29 11:00:42;;;;;;;2.67;1.25;;;29.90;34.90;;;;;;5043217;28;20075;-61
2023/06/29 11:03:09;;;;;;;1.92;0.90;;;30.00;34.90;;;;;;5025809;28;20117;-62
2023/06/29 11:05:35;;;;;;;2.60;1.10;;;30.00;35.30;;;;;;5042904;28;20173;-61
2023/06/29 11:08:01;;;;;;;6.10;1.30;;;30.20;34.60;;;;;;5042713;28;20029;-61
2023/06/29 11:10:27;;;;;;;3.85;1.20;;;30.20;34.30;;;;;;5043420;28;20037;-60
2023/06/29 11:12:54;;;;;;;1.92;0.77;;;30.40;33.60;;;;;;5039564;28;20026;-62
2023/06/29 11:15:21;;;;;;;3.55;0.85;;;30.50;33.70;;;;;;5035257;28;20103;-62
2023/06/29 11:17:50;;;;;;;4.22;1.08;;;30.70;33.80;;;;;;5042262;28;20037;-62
2023/06/29 11:20:17;;;;;;;1.33;1.00;;;30.70;32.90;;;;;;5042532;28;20025;-62
2023/06/29 11:22:44;;;;;;;2.75;1.02;;;30.80;33.00;;;;;;5043225;28;20028;-61
2023/06/29 11:25:15;;;;;;;5.25;1.40;;;30.90;33.40;;;;;;5042099;28;20072;-62
2023/06/29 11:27:41;;;;;;;1.40;1.02;;;30.90;33.50;;;;;;5042128;28;20028;-61
2023/06/29 11:30:09;;;;;;;2.42;1.27;;;31.00;33.20;;;;;;5042163;28;20041;-62
2023/06/29 11:32:39;;;;;;;5.60;1.23;;;31.00;33.90;;;;;;5042945;28;20643;-63
2023/06/29 11:35:07;;;;;;;1.92;0.90;;;31.10;33.40;;;;;;5039307;28;20496;-62
2023/06/29 11:37:35;;;;;;;2.15;0.90;;;31.20;33.30;;;;;;5038100;28;20028;-63
2023/06/29 11:40:07;;;;;;;1.98;0.95;;;31.30;33.50;;;;;;5041581;28;20064;-61
2023/06/29 11:42:34;;;;;;;4.10;0.90;;;31.40;33.10;;;;;;5041991;28;20037;-61
2023/06/29 11:45:04;;;;;;;2.42;0.70;;;31.50;34.10;;;;;;5043133;28;20026;-62
2023/06/29 11:47:31;;;;;;;2.40;0.85;;;31.50;31.10;;;;;;5043106;28;20040;-62
2023/06/29 11:50:01;;;;;;;2.20;0.85;;;31.60;30.20;;;;;;5041630;28;20029;-62
2023/06/29 11:52:30;;;;;;;3.95;0.90;;;31.60;29.80;;;;;;5041605;28;20037;-62
2023/06/29 11:54:56;;;;;;;2.15;0.80;;;31.60;30.10;;;;;;5041782;28;20059;-62
2023/06/29 11:57:22;;;;;;;2.65;1.10;;;31.50;30.80;;;;;;5042542;28;20089;-62
2023/06/29 11:59:47;;;;;;;2.92;0.90;;;31.50;31.00;;;;;;5041596;28;20021;-61
2023/06/29 12:02:18;;;;;;;1.80;0.80;;;31.60;31.80;;;;;;5041203;28;20112;-61
2023/06/29 12:05:13;;;;;;;3.63;0.73;;;31.70;31.20;;;;;;5041731;28;20101;-62
2023/06/29 12:07:43;;;;;;;1.48;0.60;;;31.80;30.70;;;;;;5018191;28;20412;-62
2023/06/29 12:10:13;;;;;;;2.30;0.70;;;32.00;30.60;;;;;;5041352;28;20087;-62
2023/06/29 12:12:45;;;;;;;1.00;0.77;;;32.10;30.90;;;;;;5041419;28;20037;-63
2023/06/29 12:15:17;;;;;;;1.48;1.00;;;32.20;30.40;;;;;;5041505;28;20032;-62
2023/06/29 12:17:44;;;;;;;1.30;0.90;;;32.20;29.70;;;;;;5036796;28;20121;-61
2023/06/29 12:20:40;;;;;;;2.50;0.90;;;32.20;29.60;;;;;;5024234;28;20025;-61
2023/06/29 12:23:06;;;;;;;2.40;0.90;;;32.10;29.40;;;;;;5038954;28;20041;-61
2023/06/29 12:25:31;;;;;;;2.72;1.02;;;32.00;29.50;;;;;;5041053;28;20063;-62
2023/06/29 12:27:57;;;;;;;2.08;0.90;;;31.90;30.00;;;;;;5042161;28;20491;-61
2023/06/29 12:30:23;;;;;;;2.60;1.17;;;31.90;30.00;;;;;;5041222;28;20029;-61
2023/06/29 12:32:50;;;;;;;0.93;0.88;;;31.80;30.70;;;;;;5040606;28;20085;-62
2023/06/29 12:35:18;;;;;;;2.10;1.00;;;31.90;30.80;;;;;;5041131;28;20068;-62
2023/06/29 12:37:45;;;;;;;3.00;1.10;;;32.00;31.10;;;;;;5041776;28;20040;-63
2023/06/29 12:40:11;;;;;;;3.47;1.20;;;32.10;31.80;;;;;;5040537;28;20026;-61
2023/06/29 12:42:37;;;;;;;3.40;1.40;;;32.30;32.00;;;;;;5041131;28;20154;-62
2023/06/29 12:45:04;;;;;;;1.17;0.88;;;32.60;31.50;;;;;;5040566;28;20052;-61